createdAt,value
2019-03-22T00:02:07.764Z,4.93
2019-03-22T00:04:39.045Z,4.80
2019-03-22T00:07:10.378Z,4.57
2019-03-22T00:09:41.643Z,4.83
2019-03-22T00:12:13.036Z,5.23
2019-03-22T00:14:44.510Z,5.10
2019-03-22T00:17:15.847Z,5.63
2019-03-22T00:19:47.130Z,4.97
2019-03-22T00:22:18.430Z,4.57
2019-03-22T00:24:49.732Z,4.20
2019-03-22T00:27:21.036Z,5.30
2019-03-22T00:29:52.439Z,5.23
2019-03-22T00:32:23.819Z,4.67
2019-03-22T00:34:55.140Z,4.83
2019-03-22T00:37:26.505Z,4.87
2019-03-22T00:39:57.939Z,4.80
2019-03-22T00:42:29.374Z,4.73
2019-03-22T00:45:00.629Z,4.73
2019-03-22T00:47:33.364Z,4.10
2019-03-22T00:50:05.002Z,5.67
2019-03-22T00:52:36.352Z,6.90
2019-03-22T00:55:07.655Z,6.67
2019-03-22T00:57:38.959Z,6.50
2019-03-22T01:00:10.464Z,5.80
2019-03-22T01:02:41.926Z,5.10
2019-03-22T01:05:13.856Z,6.33
2019-03-22T01:07:45.272Z,5.33
2019-03-22T01:10:16.859Z,5.23
2019-03-22T01:12:49.570Z,5.73
2019-03-22T01:15:20.900Z,6.53
2019-03-22T01:17:53.332Z,6.17
2019-03-22T01:20:24.628Z,5.30
2019-03-22T01:22:56.034Z,5.47
2019-03-22T01:25:27.310Z,4.77
2019-03-22T01:27:58.809Z,5.10
2019-03-22T01:30:30.228Z,5.57
2019-03-22T01:33:01.525Z,5.07
2019-03-22T01:35:32.917Z,5.87
2019-03-22T01:38:04.609Z,5.43
2019-03-22T01:40:36.388Z,5.30
2019-03-22T01:43:07.828Z,5.20
2019-03-22T01:45:39.223Z,7.20
2019-03-22T01:48:10.547Z,6.80
2019-03-22T01:50:41.815Z,5.67
2019-03-22T01:53:13.274Z,4.50
2019-03-22T01:55:44.626Z,4.20
2019-03-22T01:58:15.930Z,4.90
2019-03-22T02:00:47.332Z,5.23
2019-03-22T02:03:19.942Z,4.63
2019-03-22T02:05:51.464Z,5.50
2019-03-22T02:08:23.231Z,5.17
2019-03-22T02:10:54.671Z,5.37
2019-03-22T02:13:26.131Z,4.50
2019-03-22T02:15:58.577Z,4.93
2019-03-22T02:18:30.407Z,5.40
2019-03-22T02:21:01.699Z,5.13
2019-03-22T02:23:32.986Z,5.90
2019-03-22T02:26:04.281Z,5.43
2019-03-22T02:28:35.591Z,5.57
2019-03-22T02:31:06.975Z,5.20
2019-03-22T02:33:38.392Z,5.13
2019-03-22T02:36:09.793Z,6.20
2019-03-22T02:38:41.084Z,6.67
2019-03-22T02:41:12.450Z,5.20
2019-03-22T02:43:43.790Z,6.30
2019-03-22T02:46:15.181Z,5.37
2019-03-22T02:48:46.666Z,4.63
2019-03-22T02:51:17.977Z,4.83
2019-03-22T02:53:49.391Z,5.13
2019-03-22T02:56:20.758Z,5.63
2019-03-22T02:58:52.346Z,5.17
2019-03-22T03:01:23.782Z,4.50
2019-03-22T03:03:55.277Z,4.80
2019-03-22T03:06:26.690Z,6.00
2019-03-22T03:08:58.055Z,4.47
2019-03-22T03:11:29.386Z,5.20
2019-03-22T03:14:00.675Z,4.50
2019-03-22T03:16:31.979Z,5.70
2019-03-22T03:19:03.257Z,4.70
2019-03-22T03:21:34.552Z,4.30
2019-03-22T03:24:05.966Z,5.07
2019-03-22T03:26:37.246Z,5.17
2019-03-22T03:29:08.562Z,4.50
2019-03-22T03:31:39.855Z,5.93
2019-03-22T03:34:11.150Z,5.57
2019-03-22T03:36:42.444Z,4.77
2019-03-22T03:39:13.734Z,5.10
2019-03-22T03:41:45.152Z,5.27
2019-03-22T03:44:16.610Z,4.60
2019-03-22T03:46:48.053Z,5.90
2019-03-22T03:49:19.463Z,5.10
2019-03-22T03:51:51.057Z,5.33
2019-03-22T03:54:22.401Z,5.97
2019-03-22T03:56:53.762Z,5.97
2019-03-22T03:59:25.152Z,4.47
2019-03-22T04:01:57.563Z,5.33
2019-03-22T04:04:29.078Z,5.40
2019-03-22T04:07:00.358Z,5.13
2019-03-22T04:09:31.746Z,5.40
2019-03-22T04:12:03.055Z,4.73
2019-03-22T04:14:34.477Z,5.40
2019-03-22T04:17:05.962Z,5.20
2019-03-22T04:19:37.498Z,5.53
2019-03-22T04:22:08.837Z,5.10
2019-03-22T04:24:40.271Z,4.50
2019-03-22T04:27:11.656Z,4.70
2019-03-22T04:29:42.961Z,5.37
2019-03-22T04:32:14.349Z,4.50
2019-03-22T04:34:45.740Z,5.77
2019-03-22T04:37:17.065Z,4.97
2019-03-22T04:39:48.709Z,5.80
2019-03-22T04:42:20.058Z,5.87
2019-03-22T04:44:51.453Z,6.37
2019-03-22T04:47:23.162Z,5.33
2019-03-22T04:49:56.130Z,5.00
2019-03-22T04:52:28.509Z,5.20
2019-03-22T04:55:02.076Z,5.77
2019-03-22T04:57:34.516Z,5.00
2019-03-22T05:00:07.040Z,5.37
2019-03-22T05:02:39.931Z,5.40
2019-03-22T05:05:13.866Z,5.20
2019-03-22T05:07:46.301Z,5.13
2019-03-22T05:10:19.223Z,5.63
2019-03-22T05:12:52.800Z,6.20
2019-03-22T05:15:25.983Z,5.50
2019-03-22T05:17:58.081Z,6.20
2019-03-22T05:20:30.938Z,5.13
2019-03-22T05:23:03.765Z,6.90
2019-03-22T05:25:36.345Z,6.13
2019-03-22T05:28:10.283Z,6.13
2019-03-22T05:31:29.609Z,6.83
2019-03-22T05:34:00.957Z,5.90
2019-03-22T05:36:32.313Z,5.20
2019-03-22T05:39:03.806Z,5.83
2019-03-22T05:41:35.208Z,5.37
2019-03-22T05:44:06.738Z,6.87
2019-03-22T05:46:38.414Z,6.60
2019-03-22T05:49:10.749Z,8.03
2019-03-22T05:51:42.038Z,6.07
2019-03-22T05:54:13.321Z,6.40
2019-03-22T05:56:44.617Z,5.80
2019-03-22T05:59:15.940Z,6.17
2019-03-22T06:01:47.532Z,6.73
2019-03-22T06:04:18.894Z,6.10
2019-03-22T06:06:50.339Z,5.43
2019-03-22T06:09:21.681Z,5.90
2019-03-22T06:11:53.038Z,5.70
2019-03-22T06:14:24.329Z,5.17
2019-03-22T06:16:56.342Z,4.90
2019-03-22T06:19:27.653Z,6.70
2019-03-22T06:21:59.039Z,5.67
2019-03-22T06:24:30.605Z,5.40
2019-03-22T06:27:01.943Z,6.77
2019-03-22T06:29:33.289Z,4.83
2019-03-22T06:32:04.683Z,5.60
2019-03-22T06:34:35.977Z,6.37
2019-03-22T06:37:07.388Z,5.70
2019-03-22T06:39:38.667Z,6.17
2019-03-22T06:42:10.083Z,7.00
2019-03-22T06:44:41.408Z,5.90
2019-03-22T06:47:12.727Z,6.67
2019-03-22T06:49:44.018Z,6.20
2019-03-22T06:52:15.536Z,7.93
2019-03-22T06:54:47.033Z,7.57
2019-03-22T06:57:18.318Z,8.27
2019-03-22T06:59:49.604Z,7.13
2019-03-22T07:02:21.211Z,7.40
2019-03-22T07:04:52.505Z,6.43
2019-03-22T07:07:23.915Z,8.60
2019-03-22T07:09:55.113Z,7.07
2019-03-22T07:12:26.513Z,7.03
2019-03-22T07:14:57.745Z,6.43
2019-03-22T07:17:29.052Z,6.93
2019-03-22T07:20:00.406Z,6.10
2019-03-22T07:22:31.792Z,7.20
2019-03-22T07:25:03.309Z,7.60
2019-03-22T07:27:34.712Z,7.40
2019-03-22T07:30:18.103Z,7.17
2019-03-22T07:32:40.057Z,7.80
2019-03-22T07:35:12.495Z,8.07
2019-03-22T07:37:43.792Z,8.20
2019-03-22T07:40:15.288Z,8.70
2019-03-22T07:42:46.783Z,9.80
2019-03-22T07:45:18.628Z,10.30
2019-03-22T07:47:49.884Z,9.70
2019-03-22T07:50:21.385Z,8.57
2019-03-22T07:52:52.896Z,7.63
2019-03-22T07:55:24.285Z,7.03
2019-03-22T07:57:55.697Z,8.43
2019-03-22T08:00:31.069Z,8.33
2019-03-22T08:03:00.050Z,7.90
2019-03-22T08:05:31.531Z,9.00
2019-03-22T08:08:02.822Z,8.40
2019-03-22T08:10:34.137Z,7.60
2019-03-22T08:13:05.546Z,8.03
2019-03-22T08:15:37.015Z,8.40
2019-03-22T08:18:08.374Z,8.27
2019-03-22T08:20:39.824Z,8.93
2019-03-22T08:23:29.525Z,8.60
2019-03-22T08:26:00.907Z,8.13
2019-03-22T08:28:32.287Z,7.77
2019-03-22T08:31:05.523Z,8.00
2019-03-22T08:33:37.344Z,9.47
2019-03-22T08:36:09.230Z,7.63
2019-03-22T08:38:40.699Z,8.30
2019-03-22T08:41:12.047Z,7.73
2019-03-22T08:43:43.396Z,7.20
2019-03-22T08:46:14.712Z,8.27
2019-03-22T08:48:46.061Z,8.40
2019-03-22T08:51:17.519Z,7.63
2019-03-22T08:53:55.126Z,8.83
2019-03-22T08:56:22.254Z,7.90
2019-03-22T08:58:53.707Z,7.40
2019-03-22T09:01:25.225Z,7.70
2019-03-22T09:03:56.555Z,7.97
2019-03-22T09:06:28.041Z,8.20
2019-03-22T09:08:59.349Z,7.33
2019-03-22T09:11:30.634Z,7.20
2019-03-22T09:14:01.961Z,8.77
2019-03-22T09:16:33.306Z,7.70
2019-03-22T09:19:04.623Z,8.07
2019-03-22T09:21:35.799Z,6.93
2019-03-22T09:24:07.313Z,8.70
2019-03-22T09:26:47.709Z,7.70
2019-03-22T09:29:11.822Z,6.93
2019-03-22T09:31:43.198Z,7.17
2019-03-22T09:34:14.498Z,7.53
2019-03-22T09:36:45.825Z,8.27
2019-03-22T09:39:17.082Z,7.60
2019-03-22T09:41:48.458Z,7.20
2019-03-22T09:44:19.813Z,6.33
2019-03-22T09:46:51.014Z,6.77
2019-03-22T09:49:22.882Z,6.37
2019-03-22T09:51:55.295Z,7.87
2019-03-22T09:54:26.816Z,8.73
2019-03-22T09:56:58.372Z,7.53
2019-03-22T09:59:29.743Z,6.37
2019-03-22T10:02:01.263Z,6.33
2019-03-22T10:04:32.716Z,6.27
2019-03-22T10:07:04.001Z,7.10
2019-03-22T10:09:35.413Z,6.83
2019-03-22T10:12:07.336Z,7.47
2019-03-22T10:14:38.781Z,6.70
2019-03-22T10:17:10.084Z,7.30
2019-03-22T10:19:42.264Z,7.20
2019-03-22T10:22:13.583Z,6.47
2019-03-22T10:24:44.996Z,7.20
2019-03-22T10:27:17.345Z,6.73
2019-03-22T10:29:48.646Z,6.10
2019-03-22T10:32:19.927Z,6.40
2019-03-22T10:34:51.339Z,6.90
2019-03-22T10:37:22.828Z,6.07
2019-03-22T10:39:54.238Z,7.30
2019-03-22T10:42:25.620Z,6.67
2019-03-22T10:44:56.983Z,7.13
2019-03-22T10:47:28.291Z,7.00
2019-03-22T10:49:59.680Z,7.20
2019-03-22T10:52:30.993Z,7.17
2019-03-22T10:55:17.462Z,7.13
2019-03-22T10:57:35.383Z,6.33
2019-03-22T11:00:08.094Z,6.20
2019-03-22T11:02:39.751Z,6.57
2019-03-22T11:05:11.116Z,7.47
2019-03-22T11:07:42.499Z,6.60
2019-03-22T11:10:14.300Z,6.27
2019-03-22T11:12:45.587Z,7.00
2019-03-22T11:15:17.199Z,7.67
2019-03-22T11:17:48.618Z,6.73
2019-03-22T11:20:21.187Z,6.87
2019-03-22T11:22:52.494Z,7.47
2019-03-22T11:25:23.835Z,6.70
2019-03-22T11:27:55.384Z,7.37
2019-03-22T11:30:26.833Z,6.50
2019-03-22T11:32:58.128Z,8.33
2019-03-22T11:35:29.544Z,7.53
2019-03-22T11:38:01.111Z,7.03
2019-03-22T11:40:32.445Z,7.13
2019-03-22T11:43:08.539Z,8.23
2019-03-22T11:45:36.784Z,7.87
2019-03-22T11:48:08.276Z,7.93
2019-03-22T11:50:39.774Z,8.37
2019-03-22T11:53:11.453Z,7.63
2019-03-22T11:55:42.884Z,7.33
2019-03-22T11:58:14.272Z,7.37
2019-03-22T12:00:45.820Z,7.37
2019-03-22T12:03:17.130Z,8.50
2019-03-22T12:05:48.522Z,6.50
2019-03-22T12:08:19.861Z,6.90
2019-03-22T12:10:51.288Z,8.50
2019-03-22T12:13:22.661Z,7.80
2019-03-22T12:15:53.895Z,7.80
2019-03-22T12:18:25.311Z,7.23
2019-03-22T12:20:56.818Z,7.87
2019-03-22T12:23:28.425Z,8.37
2019-03-22T12:25:59.788Z,7.40
2019-03-22T12:28:31.256Z,9.13
2019-03-22T12:31:02.881Z,8.27
2019-03-22T12:33:34.240Z,7.60
2019-03-22T12:36:05.734Z,7.80
2019-03-22T12:38:37.039Z,9.50
2019-03-22T12:41:08.344Z,8.10
2019-03-22T12:43:39.679Z,8.13
2019-03-22T12:46:12.003Z,8.50
2019-03-22T12:48:43.479Z,8.70
2019-03-22T12:51:14.908Z,9.13
2019-03-22T12:53:46.323Z,9.10
2019-03-22T12:56:17.708Z,8.40
2019-03-22T12:58:49.247Z,8.00
2019-03-22T13:01:20.606Z,7.60
2019-03-22T13:03:52.047Z,8.33
2019-03-22T13:06:23.541Z,8.23
2019-03-22T13:08:54.944Z,8.10
2019-03-22T13:11:26.360Z,8.77
2019-03-22T13:13:57.849Z,8.50
2019-03-22T13:16:29.350Z,8.20
2019-03-22T13:19:00.720Z,9.87
2019-03-22T13:21:32.140Z,8.67
2019-03-22T13:24:03.549Z,8.13
2019-03-22T13:26:34.957Z,8.03
2019-03-22T13:29:06.496Z,8.23
2019-03-22T13:31:37.800Z,8.57
2019-03-22T13:34:09.041Z,7.90
2019-03-22T13:36:40.349Z,8.03
2019-03-22T13:39:11.744Z,9.27
2019-03-22T13:41:43.007Z,7.37
2019-03-22T13:44:14.277Z,8.83
2019-03-22T13:46:45.623Z,9.23
2019-03-22T13:49:16.931Z,9.03
2019-03-22T13:51:48.143Z,7.43
2019-03-22T13:54:19.420Z,9.17
2019-03-22T13:56:50.721Z,8.77
2019-03-22T13:59:22.132Z,10.00
2019-03-22T14:01:53.670Z,9.30
2019-03-22T14:04:25.045Z,9.67
2019-03-22T14:06:56.468Z,9.23
2019-03-22T14:09:27.829Z,9.20
2019-03-22T14:11:59.474Z,10.20
2019-03-22T14:14:30.734Z,9.07
2019-03-22T14:17:02.140Z,10.47
2019-03-22T14:19:33.416Z,9.23
2019-03-22T14:22:04.921Z,8.93
2019-03-22T14:24:36.216Z,8.37
2019-03-22T14:27:07.728Z,8.17
2019-03-22T14:29:39.221Z,10.40
2019-03-22T14:32:10.627Z,7.83
2019-03-22T14:34:42.011Z,8.63
2019-03-22T14:37:13.501Z,8.70
2019-03-22T14:39:44.988Z,8.93
2019-03-22T14:42:16.313Z,9.33
2019-03-22T14:44:47.529Z,8.97
2019-03-22T14:47:18.977Z,9.87
2019-03-22T14:49:50.355Z,9.23
2019-03-22T14:52:22.683Z,10.17
2019-03-22T14:54:54.186Z,9.63
2019-03-22T14:57:25.598Z,12.67
2019-03-22T14:59:59.247Z,10.07
2019-03-22T15:02:30.242Z,7.87
2019-03-22T15:05:01.632Z,8.40
2019-03-22T15:07:32.937Z,9.50
2019-03-22T15:10:04.916Z,8.80
2019-03-22T15:12:36.333Z,8.13
2019-03-22T15:15:27.552Z,7.73
2019-03-22T15:18:26.957Z,8.07
2019-03-22T15:21:20.119Z,8.90
2019-03-22T15:24:22.289Z,9.37
2019-03-22T15:27:11.353Z,8.50
2019-03-22T15:30:00.423Z,8.63
2019-03-22T15:32:45.794Z,10.77
2019-03-22T15:35:35.884Z,9.23
2019-03-22T15:38:40.149Z,9.83
2019-03-22T15:41:11.561Z,7.93
2019-03-22T15:43:42.940Z,7.73
2019-03-22T15:46:14.244Z,7.63
2019-03-22T15:48:46.661Z,6.87
2019-03-22T15:51:18.265Z,8.57
2019-03-22T15:53:49.701Z,7.93
2019-03-22T15:56:20.985Z,7.53
2019-03-22T15:58:52.468Z,7.50
2019-03-22T16:01:23.787Z,7.70
2019-03-22T16:03:55.158Z,7.60
2019-03-22T16:06:26.503Z,8.50
2019-03-22T16:08:58.737Z,9.30
2019-03-22T16:11:30.146Z,9.00
2019-03-22T16:14:01.580Z,8.30
2019-03-22T16:16:32.932Z,8.20
2019-03-22T16:19:04.346Z,7.80
2019-03-22T16:21:35.748Z,8.73
2019-03-22T16:24:07.114Z,9.43
2019-03-22T16:26:38.543Z,9.73
2019-03-22T16:29:09.844Z,11.13
2019-03-22T16:31:41.424Z,9.23
2019-03-22T16:34:12.888Z,7.47
2019-03-22T16:36:44.181Z,7.93
2019-03-22T16:39:15.590Z,6.30
2019-03-22T16:41:46.996Z,8.57
2019-03-22T16:44:18.473Z,8.30
2019-03-22T16:46:49.898Z,8.40
2019-03-22T16:49:21.364Z,8.10
2019-03-22T16:51:52.679Z,8.30
2019-03-22T16:54:23.988Z,10.17
2019-03-22T16:56:57.365Z,9.50
2019-03-22T16:59:28.710Z,7.03
2019-03-22T17:02:00.227Z,9.53
2019-03-22T17:04:31.529Z,9.07
2019-03-22T17:07:02.926Z,9.70
2019-03-22T17:09:35.031Z,9.20
2019-03-22T17:12:06.337Z,9.23
2019-03-22T17:14:37.540Z,7.40
2019-03-22T17:17:08.825Z,8.17
2019-03-22T17:19:40.043Z,7.23
2019-03-22T17:22:11.327Z,8.83
2019-03-22T17:24:43.179Z,9.37
2019-03-22T17:27:14.631Z,8.50
2019-03-22T17:29:45.925Z,8.77
2019-03-22T17:32:17.223Z,9.37
2019-03-22T17:34:48.570Z,7.83
2019-03-22T17:37:19.881Z,8.13
2019-03-22T17:39:51.574Z,7.83
2019-03-22T17:42:22.899Z,7.77
2019-03-22T17:44:54.171Z,7.47
2019-03-22T17:47:25.570Z,8.60
2019-03-22T17:49:56.961Z,8.10
2019-03-22T17:52:28.277Z,8.00
2019-03-22T17:54:59.680Z,8.10
2019-03-22T17:57:31.077Z,8.40
2019-03-22T18:00:02.571Z,7.93
2019-03-22T18:02:34.768Z,6.37
2019-03-22T18:05:07.319Z,7.23
2019-03-22T18:07:39.745Z,7.10
2019-03-22T18:10:12.260Z,7.83
2019-03-22T18:12:44.760Z,7.17
2019-03-22T18:15:16.400Z,8.20
2019-03-22T18:17:47.776Z,7.83
2019-03-22T18:20:19.374Z,6.93
2019-03-22T18:22:50.688Z,8.00
2019-03-22T18:25:21.994Z,7.40
2019-03-22T18:27:53.480Z,7.00
2019-03-22T18:30:24.778Z,7.07
2019-03-22T18:32:56.289Z,7.43
2019-03-22T18:35:27.586Z,7.53
2019-03-22T18:37:58.896Z,7.53
2019-03-22T18:40:31.203Z,6.93
2019-03-22T18:43:02.550Z,7.43
2019-03-22T18:45:33.839Z,7.60
2019-03-22T18:48:05.345Z,7.97
2019-03-22T18:50:36.757Z,8.03
2019-03-22T18:53:08.148Z,6.93
2019-03-22T18:55:39.452Z,8.00
2019-03-22T18:58:10.842Z,8.73
2019-03-22T19:00:42.249Z,8.20
2019-03-22T19:03:13.640Z,7.30
2019-03-22T19:05:44.954Z,9.40
2019-03-22T19:08:16.239Z,9.80
2019-03-22T19:10:47.468Z,8.67
2019-03-22T19:13:18.742Z,9.77
2019-03-22T19:15:51.470Z,9.80
2019-03-22T19:18:22.904Z,9.70
2019-03-22T19:20:54.252Z,10.90
2019-03-22T19:23:25.572Z,9.27
2019-03-22T19:25:56.958Z,9.37
2019-03-22T19:28:28.266Z,10.03
2019-03-22T19:30:59.557Z,8.83
2019-03-22T19:33:30.888Z,8.20
2019-03-22T19:36:02.414Z,7.20
2019-03-22T19:38:33.953Z,8.80
2019-03-22T19:41:05.692Z,7.87
2019-03-22T19:43:37.123Z,8.17
2019-03-22T19:46:08.557Z,8.17
2019-03-22T19:48:39.868Z,7.73
2019-03-22T19:51:11.264Z,7.60
2019-03-22T19:53:42.658Z,8.00
2019-03-22T19:56:14.181Z,8.37
2019-03-22T19:58:46.111Z,8.23
2019-03-22T20:01:17.577Z,7.80
2019-03-22T20:03:48.873Z,7.60
2019-03-22T20:06:20.164Z,7.40
2019-03-22T20:08:51.464Z,7.27
2019-03-22T20:11:22.771Z,8.00
2019-03-22T20:13:54.158Z,6.80
2019-03-22T20:16:25.440Z,7.20
2019-03-22T20:18:56.769Z,8.50
2019-03-22T20:21:28.206Z,8.70
2019-03-22T20:23:59.710Z,9.03
2019-03-22T20:26:31.471Z,7.20
2019-03-22T20:29:03.002Z,7.70
2019-03-22T20:31:34.359Z,7.60
2019-03-22T20:34:05.983Z,6.67
2019-03-22T20:36:37.748Z,7.30
2019-03-22T20:39:09.484Z,7.67
2019-03-22T20:41:40.886Z,7.70
2019-03-22T20:44:12.220Z,6.77
2019-03-22T20:46:43.648Z,8.20
2019-03-22T20:49:15.392Z,7.83
2019-03-22T20:51:46.747Z,7.67
2019-03-22T20:54:18.198Z,7.40
2019-03-22T20:56:49.550Z,8.60
2019-03-22T20:59:20.819Z,8.10
2019-03-22T21:01:53.053Z,7.67
2019-03-22T21:04:24.363Z,8.07
2019-03-22T21:06:55.671Z,8.50
2019-03-22T21:09:27.629Z,8.00
2019-03-22T21:11:59.060Z,8.07
2019-03-22T21:14:30.897Z,8.00
2019-03-22T21:17:02.270Z,9.43
2019-03-22T21:19:33.645Z,9.77
2019-03-22T21:22:05.069Z,9.80
2019-03-22T21:24:36.380Z,8.03
2019-03-22T21:27:15.384Z,9.03
2019-03-22T21:29:44.453Z,9.33
2019-03-22T21:32:14.760Z,7.90
2019-03-22T21:34:46.143Z,8.23
2019-03-22T21:37:17.510Z,10.03
2019-03-22T21:39:48.800Z,8.53
2019-03-22T21:42:20.092Z,9.53
2019-03-22T21:44:51.424Z,9.43
2019-03-22T21:47:23.285Z,10.50
2019-03-22T21:49:54.683Z,9.93
2019-03-22T21:52:25.994Z,9.20
2019-03-22T21:54:58.244Z,11.60
2019-03-22T21:57:29.724Z,9.10
2019-03-22T22:00:01.132Z,9.00
2019-03-22T22:02:32.540Z,8.80
2019-03-22T22:05:03.929Z,9.60
2019-03-22T22:07:35.430Z,9.60
2019-03-22T22:10:07.052Z,9.90
2019-03-22T22:12:38.495Z,9.07
2019-03-22T22:15:11.549Z,9.57
2019-03-22T22:17:43.223Z,8.87
2019-03-22T22:20:15.031Z,9.07
2019-03-22T22:22:46.358Z,10.10
2019-03-22T22:25:17.835Z,9.73
2019-03-22T22:27:49.251Z,9.00
2019-03-22T22:30:20.735Z,8.73
2019-03-22T22:32:52.154Z,9.23
2019-03-22T22:35:23.539Z,8.60
2019-03-22T22:37:54.854Z,8.50
2019-03-22T22:40:26.222Z,9.57
2019-03-22T22:42:58.728Z,9.50
2019-03-22T22:45:30.007Z,9.77
2019-03-22T22:48:01.284Z,10.03
2019-03-22T22:50:32.663Z,9.00
2019-03-22T22:53:03.963Z,8.90
2019-03-22T22:55:35.353Z,9.20
2019-03-22T22:58:07.751Z,9.63
2019-03-22T23:00:39.111Z,8.53
2019-03-22T23:03:10.620Z,10.07
2019-03-22T23:05:41.921Z,10.53
2019-03-22T23:08:13.330Z,11.33
2019-03-22T23:10:44.816Z,10.97
2019-03-22T23:13:16.170Z,10.87
2019-03-22T23:15:47.461Z,10.33
2019-03-22T23:18:18.961Z,10.43
2019-03-22T23:20:50.662Z,10.50
2019-03-22T23:23:21.883Z,10.23
2019-03-22T23:25:53.272Z,11.90
2019-03-22T23:28:24.668Z,9.30
2019-03-22T23:30:56.072Z,11.70
2019-03-22T23:33:27.581Z,9.80
2019-03-22T23:35:58.931Z,11.50
2019-03-22T23:38:31.330Z,10.50
2019-03-22T23:41:02.741Z,11.47
2019-03-22T23:43:34.126Z,12.20
2019-03-22T23:46:05.664Z,10.63
2019-03-22T23:48:36.997Z,11.20
2019-03-22T23:51:08.392Z,11.27
2019-03-22T23:53:39.680Z,11.10
2019-03-22T23:56:10.989Z,10.13
2019-03-22T23:58:42.429Z,10.70
